Terminal Aerodrome Forecast
Issued by NWS

Home | Current Version | Previous Version | Text Only | Print | Product List | Glossary Off
Versions: 1 2 3 4 5 6 7 8 9 10 11 12 13 14 15 16 17 18 19 20 21 22 23 24 25 26 27 28 29 30 31 32 33 34 35 36 37 38

000
FTUS43 KLOT 181300 AAA
TAFDPA
TAF AMD
KDPA 181401Z 1814/1912 35014G20KT P6SM VCSH BKN025 OVC035
     FM181700 35011KT P6SM BKN035
     FM182300 36006KT P6SM SCT040
     FM190300 00000KT P6SM FEW250=

USA.gov is the U.S. government's official web portal to all federal, state and local government web resources and services.